logo
App data

Space Robot Samurai Zombie Slayer

We are not alone in the universe, its filled with Zombies! To combat them mankind invented their most efficient weapon yet: the Space Robot Samurai Zombie Slayer. ONLY YOU can pilot the powerful Space Robot Samurai Zombie Slayer to fight the Space Zombie horde!
Store | Hub | SteamDB | Site
Developer: Brandon Brizzi Publisher: Brandon Brizzi
Genre: Action, Indie
Languages: English
Tags: Action (24), Indie (23), Zombies (6)
Category: Single-player, Steam Achievements, Full controller support, Steam Leaderboards
Release date: May 21, 2015
Price: $1.99
Owners: 0 .. 20,000
Followers: 104
Playtime total: 00:12 (average) 00:23 (median)

Steam Spy is still in beta, so expect major bugs.

Owners data:

Access restricted.

This feature is only available to users with special access rights. Sorry.

If you want to proceed, you need to register or log in first and then back Steam Spy on Patreon. Look for Indie or Pro pledge.

Don't forget to use the same email as on Steam Spy!

Audience in 2 weeks:

Access restricted.

This feature is only available to users with special access rights. Sorry.

If you want to proceed, you need to register or log in first and then back Steam Spy on Patreon. Look for Indie or Pro pledge.

Don't forget to use the same email as on Steam Spy!

Peak daily concurrent players:

CCU data courtesy of SteamDB. Used with permission.

Hourly concurrent players:

YouTube:

The views data is based on top 50 videos uploaded last week. Actual number of views might be more than the number shown.

The displayed number of videos uploaded yesterday is limited to 50, so if there were more videos uploaded, the number will still show 50.

If the game has commonly used word as its name (like "FEAR" or "Volume") its number of Youtube views might be wrong.

Games similar to this one:

# Game Release date
Price
Score rank
(Userscore / Metascore)
Owners
Players
Playtime (Median)
1 Tinertia Sep 3, 2015 $11.99100% (100%)0 .. 20,0000%00:00 (00:00)
2 Lazerbait Oct 14, 2016 Free97% (97%)20,000 .. 50,0000%00:00 (00:00)
3 Seven Kingdoms: Ancient Adversaries Jun 8, 1998 $5.99N/A (N/A)0 .. 20,0000%00:00 (00:00)
4 Hide & Spook: The Haunted Alchemist Oct 28, 2016 FreeN/A (N/A)0 .. 20,0000%00:00 (00:00)
5 Wuppo Sep 29, 2016 $14.9995% (96%/78%)200,000 .. 500,0003.19%01:46 (02:11)
6 Bio Menace Aug 3, 1993 N/AN/A (N/A)0 .. 20,0000%00:00 (00:00)
7 Fragile Allegiance Mar 31, 1997 $2.49N/A (N/A)0 .. 20,0000%00:00 (00:00)
8 Bot Vice Jul 11, 2016 $4.9993% (95%)50,000 .. 100,0001.35%04:46 (01:35)
9 Gold Rush! Classic Dec 23, 1988 $2.9990% (94%)200,000 .. 500,0000.24%03:02 (01:56)
10 Star Trek: Judgment Rites May 8, 2015 $9.99N/A (N/A)0 .. 20,0000%00:00 (00:00)
11 ESCHATOS Sep 18, 2015 $14.9990% (94%)0 .. 20,0000%00:00 (00:00)
12 The Sum of All Fears May 31, 2002 $9.99N/A (N/A/72%)0 .. 20,0000%00:00 (00:00)
13 Garden Rescue Feb 2, 2015 $3.99N/A (N/A)100,000 .. 200,0000%00:00 (00:00)
14 Space Ace Apr 29, 1984 $9.9987% (93%)0 .. 20,0000%00:00 (00:00)
15 Run or Die Dec 11, 2014 $4.9987% (93%)0 .. 20,0000%00:00 (00:00)
16 Super Mutant Alien Assault Aug 20, 2015 $9.9987% (93%)0 .. 20,0000%00:00 (00:00)
17 NotCoD May 19, 2016 $4.9987% (93%)0 .. 20,0002.94%10:55 (03:38)
18 Normality Jun 30, 1996 $2.9987% (93%)200,000 .. 500,0000.23%03:07 (02:04)
19 Anarcute Jul 12, 2016 $14.9987% (93%/79%)0 .. 20,0000%00:00 (00:00)
20 Shmups Skill Test シューティング技能検定 Jun 9, 2016 $4.99N/A (N/A)0 .. 20,0000%00:00 (00:00)
21 UFHO2 Apr 1, 2014 FreeN/A (N/A)20,000 .. 50,0000%00:00 (00:00)
22 Great Big War Game Aug 28, 2012 $6.99N/A (N/A)0 .. 20,0000%00:00 (00:00)
23 Tornuffalo Dec 12, 2016 $0.99N/A (N/A)0 .. 20,0000%00:00 (00:00)
24 Super Flippin' Phones Feb 18, 2016 $2.99N/A (N/A)0 .. 20,0000%00:00 (00:00)
25 Gun Bombers Sep 21, 2016 $7.99N/A (N/A)0 .. 20,0000%00:00 (00:00)
26 Kohan II: Kings of War Sep 21, 2004 $9.9980% (91%/81%)20,000 .. 50,0000%00:00 (00:00)
27 Apocalypse: Party's Over May 30, 2016 $4.9980% (91%)0 .. 20,0000%00:00 (00:00)
28 Weird Hero Nov 18, 2016 $3.9980% (91%)0 .. 20,0000%00:00 (00:00)
29 Marc Eckō's Getting Up: Contents Under Pressure Feb 14, 2006 $14.9980% (91%/69%)50,000 .. 100,0001.22%00:03 (00:01)
30 Bezier Mar 3, 2016 $9.9977% (90%)0 .. 20,0000.75%00:41 (00:13)
31 Westward IV: All Aboard Feb 16, 2010 $6.99N/A (N/A)0 .. 20,0000%00:00 (00:00)
32 Chicken Invaders 3 Jun 8, 2015 $4.9977% (90%)0 .. 20,0000%00:00 (00:00)
33 Transcendence Jul 24, 2015 $8.9977% (90%)0 .. 20,0000%00:00 (00:00)
34 Death's Hangover Jan 20, 2017 $4.9977% (90%)20,000 .. 50,0001.09%00:10 (00:03)
35 JUDGEMENT SILVERSWORD - Resurrection - Sep 18, 2015 $4.99N/A (N/A)0 .. 20,0000%00:00 (00:00)
36 Sam & Max 104: Abe Lincoln Must Die! Feb 22, 2007 $19.9977% (90%)50,000 .. 100,0000%00:00 (00:00)
37 Explosionade Sep 23, 2015 $3.99N/A (N/A)0 .. 20,0000%00:00 (00:00)
38 Alien Robot Monsters Sep 9, 2015 $5.9971% (88%)0 .. 20,0000%00:00 (00:00)
39 SPINGUN Nov 11, 2016 $1.9971% (88%)0 .. 20,0000%00:00 (00:00)
40 Armed and Dangerous Dec 2, 2003 $5.9971% (88%/78%)20,000 .. 50,0000%00:00 (00:00)
41 Inbound Jul 5, 2016 $2.99N/A (N/A)0 .. 20,0000%00:00 (00:00)
42 Viking Squad Oct 4, 2016 $14.9971% (88%)0 .. 20,0000%00:00 (00:00)
43 DELTAZEAL Oct 16, 2015 $11.99N/A (N/A)0 .. 20,0000%00:00 (00:00)
44 Mystik Belle May 15, 2015 $14.9968% (87%)0 .. 20,0000%00:00 (00:00)
45 Avoid - Sensory Overload Apr 8, 2014 $4.9968% (87%)20,000 .. 50,0000%00:00 (00:00)
46 Rocket Fist May 12, 2016 $4.9966% (86%)0 .. 20,0000%00:00 (00:00)
47 Snow Fortress Dec 16, 2016 $14.99N/A (N/A)0 .. 20,0000%00:00 (00:00)
48 Felt Tip Circus Apr 5, 2016 $7.99N/A (N/A)20,000 .. 50,0000%00:00 (00:00)
49 Moorhuhn Invasion (Crazy Chicken Invasion) Feb 20, 2015 $3.99N/A (N/A)0 .. 20,0000%00:00 (00:00)
50 Zero Punctuation: Hatfall - Hatters Gonna Hat Edition Nov 20, 2015 $4.9966% (86%)0 .. 20,0000%00:00 (00:00)
51 ORCS May 20, 2016 $1.9963% (85%)20,000 .. 50,0000%00:00 (00:00)
52 Disney's Chicken Little Oct 20, 2005 $9.9963% (85%)0 .. 20,0000%00:00 (00:00)
53 Azure Striker Gunvolt Aug 28, 2015 $14.9963% (85%)20,000 .. 50,0000%00:00 (00:00)
54 2 Ninjas 1 Cup Feb 3, 2017 $0.9963% (85%)0 .. 20,0000%00:00 (00:00)
55 Gurgamoth Feb 16, 2016 $4.9963% (85%)50,000 .. 100,0000.61%02:31 (00:50)
56 Tethered Feb 27, 2017 $24.9960% (84%)0 .. 20,0000%00:00 (00:00)
57 Eador. Imperium Jan 27, 2017 $19.9960% (84%)0 .. 20,0007.14%03:02 (01:00)
58 DEXED Sep 26, 2016 $9.99N/A (N/A)0 .. 20,0000%00:00 (00:00)
59 Vertigo Dec 22, 2016 $14.9958% (83%)0 .. 20,0000%00:00 (00:00)
60 SHOCK TROOPERS May 18, 2016 $7.9958% (83%)20,000 .. 50,0000%00:00 (00:00)
61 Enemy Mar 17, 2015 $14.9958% (83%)0 .. 20,0000%00:00 (00:00)
62 Skyhook May 17, 2016 $4.9955% (82%)0 .. 20,0000%00:00 (00:00)
63 Earthworm Jim 2 Apr 30, 1996 $19.9955% (82%)20,000 .. 50,0000%00:00 (00:00)
64 Dragon's Lair 2: Time Warp Jun 16, 1991 $9.9955% (82%)0 .. 20,0000%00:00 (00:00)
65 Gunman Taco Truck Jan 28, 2017 $1.9953% (81%)0 .. 20,0000%00:00 (00:00)
66 Radiant Defense Jul 11, 2014 $4.9953% (81%)0 .. 20,0000%00:00 (00:00)
67 Seven Kingdoms 2 HD Feb 4, 2015 $3.9953% (81%)20,000 .. 50,0000%00:00 (00:00)
68 LocoCycle Feb 14, 2014 $9.9951% (80%)0 .. 20,0000%00:00 (00:00)
69 TWINKLE STAR SPRITES May 26, 2016 $7.9951% (80%)20,000 .. 50,0000%00:00 (00:00)
70 VERSUS SQUAD Oct 26, 2016 $7.9951% (80%)50,000 .. 100,0003.08%00:25 (00:09)
71 ARCADE GAME SERIES: Ms. PAC-MAN Apr 19, 2016 $3.9951% (80%)0 .. 20,0000%00:00 (00:00)
72 Highland Warriors Jan 20, 2003 $7.99N/A (N/A/58%)0 .. 20,0000%00:00 (00:00)
73 Umihara Kawase Shun: Steam Edition Nov 24, 2015 $11.99N/A (N/A)0 .. 20,0000%00:00 (00:00)
74 Caladrius Blaze Jan 12, 2017 $24.9949% (79%)0 .. 20,0000%00:00 (00:00)
75 Daedalus - No Escape Oct 28, 2014 $4.9949% (79%)20,000 .. 50,0000%00:00 (00:00)
76 TASTEE: Lethal Tactics May 10, 2016 $14.9949% (79%)20,000 .. 50,0000%00:00 (00:00)
77 Gnomes Vs. Fairies: Greckel's Quest Jul 1, 2016 $9.9949% (79%)0 .. 20,0000%00:00 (00:00)
78 LUMBERMANCER Jun 28, 2016 $2.99N/A (N/A)0 .. 20,0000%00:00 (00:00)
79 Klang Sep 22, 2016 $14.9947% (78%/71%)0 .. 20,0000%00:00 (00:00)
80 Xenocide Aug 28, 2015 $2.99N/A (N/A)0 .. 20,0000%00:00 (00:00)
81 Age of Barbarian Extended Cut May 20, 2016 $12.9947% (78%)0 .. 20,0000%00:00 (00:00)
82 IrreVRsible May 24, 2016 $1.99N/A (N/A)0 .. 20,0000%00:00 (00:00)
83 Quick Draw Jan 10, 2017 $9.99N/A (N/A)0 .. 20,0000%00:00 (00:00)
84 Cluck Yegger in Escape From The Planet of The Poultroid Nov 9, 2015 $2.9947% (78%)0 .. 20,0000%00:00 (00:00)
85 Starscape Mar 27, 2003 $7.9947% (78%)0 .. 20,0000%00:00 (00:00)
86 Starchaser: Priestess of the Night Sky Jul 24, 2015 $9.99N/A (N/A)0 .. 20,00014.29%00:21 (00:07)
87 THE LAST BLADE Aug 31, 2016 $9.9945% (77%)20,000 .. 50,0002.5%00:32 (00:10)
88 Curse of the Crescent Isle DX Aug 21, 2015 $0.9945% (77%)0 .. 20,0000%00:00 (00:00)
89 Disney Infinity 3.0: Gold Edition Dec 9, 2016 $29.9945% (77%)0 .. 20,0000%00:00 (00:00)
90 Tank Battle: 1944 Mar 1, 2016 $9.99N/A (N/A)0 .. 20,0000%00:00 (00:00)
91 Blue Solar: Chaos War Jul 21, 2016 $3.9943% (76%)0 .. 20,0000%00:00 (00:00)
92 Boulder Dash - 30th Anniversary Sep 13, 2016 $14.99N/A (N/A)0 .. 20,00020%00:01 (00:00)
93 Mysterium: A Psychic Clue Game Jan 12, 2017 $3.9843% (76%)50,000 .. 100,0000.35%01:01 (00:20)
94 NOBUNAGA’S AMBITION: Kakushin with Power Up Kit / 信長の野望・革新 with パワーアップキット Jun 25, 2015 $54.9941% (75%)20,000 .. 50,0000%00:00 (00:00)
95 Onechanbara Z2: Chaos Jun 2, 2016 $39.9941% (75%)0 .. 20,0000%00:00 (00:00)
96 Mekazoo Nov 14, 2016 $9.9941% (75%/80%)0 .. 20,0000%00:00 (00:00)
97 Sentry Knight Tactics Oct 3, 2016 $4.9941% (75%)0 .. 20,0000%00:00 (00:00)
98 Aces of the Luftwaffe May 6, 2015 $4.99N/A (N/A)0 .. 20,0000%00:00 (00:00)
99 Stars in Shadow Jan 19, 2017 $24.9941% (75%/75%)0 .. 20,0000%00:00 (00:00)
100 Bionic Commando Jul 28, 2009 $9.9939% (74%/69%)200,000 .. 500,0000%00:00 (00:00)
101 Smell Of Death Jul 4, 2016 $9.9939% (74%)0 .. 20,0000%00:00 (00:00)
102 Death by Game Show Jan 22, 2016 $9.9938% (73%)20,000 .. 50,0000%00:00 (00:00)
103 FIVE: Champions of Canaan Sep 27, 2016 $3.9938% (73%)0 .. 20,0003.57%07:19 (02:26)
104 Crow Oct 6, 2014 $9.99N/A (N/A)20,000 .. 50,0000%00:00 (00:00)
105 EPOCH Jun 5, 2014 $1.99N/A (N/A)0 .. 20,0000%00:00 (00:00)
106 Fortify Apr 8, 2016 $4.9938% (73%)0 .. 20,0000%00:00 (00:00)
107 AirMech Command Mar 8, 2017 $19.9938% (73%)0 .. 20,0000%00:00 (00:00)
108 Loot or Die Sep 16, 2016 $0.99N/A (N/A)0 .. 20,0000%00:00 (00:00)
109 Phoning Home Feb 7, 2017 $19.9936% (72%/61%)20,000 .. 50,0000%00:00 (00:00)
110 Castle Torgeath: Descent into Darkness Jan 22, 2016 $7.9936% (72%)0 .. 20,0004.55%33:32 (11:10)
111 Auro: A Monster-Bumping Adventure Apr 13, 2016 $6.9936% (72%)0 .. 20,0000%00:00 (00:00)
112 Crewsaders Nov 17, 2016 $2.99N/A (N/A)0 .. 20,0000%00:00 (00:00)
113 Zoo Empire Aug 1, 2004 $6.99N/A (N/A/59%)0 .. 20,0000%00:00 (00:00)
114 Madness Cubed May 12, 2016 $1.9933% (70%)50,000 .. 100,0001.87%00:13 (00:06)
115 Graveyard Shift Oct 20, 2016 $1.99N/A (N/A)0 .. 20,0000%00:00 (00:00)
116 V ARRR Jun 10, 2016 $9.9933% (70%)0 .. 20,0000%00:00 (00:00)
117 Battle Fantasia -Revised Edition- Jul 7, 2015 $14.9933% (70%)0 .. 20,0000%00:00 (00:00)
118 Brigade E5: New Jagged Union Oct 17, 2006 $3.9933% (70%/41%)0 .. 20,0000%00:00 (00:00)
119 Death Dojo Nov 8, 2016 Free31% (69%)0 .. 20,0000%00:00 (00:00)
120 Heroes of Normandie Oct 1, 2015 $29.9931% (69%/65%)0 .. 20,0000%00:00 (00:00)
121 The Next World Mar 7, 2016 $12.9931% (69%)20,000 .. 50,0000%00:00 (00:00)
122 Little King's Story Aug 5, 2016 $19.9931% (69%/62%)0 .. 20,0000%00:00 (00:00)
123 Global Outbreak: Doomsday Edition Aug 11, 2014 $8.9929% (68%)0 .. 20,0001.25%05:48 (01:56)
124 Scourge of War: Waterloo Nov 19, 2015 $49.9929% (68%)0 .. 20,0000%00:00 (00:00)
125 Ravenmark: Scourge of Estellion Sep 10, 2015 $14.9929% (68%/75%)0 .. 20,0000%00:00 (00:00)
126 Warhammer 40,000: Armageddon - Da Orks Aug 18, 2016 $19.99N/A (N/A)0 .. 20,0000%00:00 (00:00)
127 Space Food Truck Mar 25, 2016 $9.9928% (67%)20,000 .. 50,0006.25%14:36 (04:52)
128 Pure Chess Grandmaster Edition Sep 9, 2016 $15.9928% (67%)0 .. 20,0000%00:00 (00:00)
129 1775: Rebellion Sep 29, 2016 $24.99N/A (N/A)0 .. 20,0004.84%01:18 (00:59)
130 Fair Strike Feb 5, 2004 $3.99N/A (N/A/56%)0 .. 20,00012.5%18:17 (06:05)
131 Locked Fears Nov 4, 2016 $0.99N/A (N/A)0 .. 20,0000%00:00 (00:00)
132 Zombie City Defense 2 Aug 19, 2016 $9.9926% (66%)0 .. 20,0000%00:00 (00:00)
133 Kaiju Panic Oct 9, 2015 $9.99N/A (N/A)0 .. 20,0000%00:00 (00:00)
134 Scary Girl Apr 9, 2012 $6.9926% (66%)0 .. 20,0000%00:00 (00:00)
135 Disney Pirates of the Caribbean: At Worlds End May 22, 2007 $19.9925% (65%)0 .. 20,0000%00:00 (00:00)
136 King Lucas Dec 1, 2016 $4.9925% (65%)20,000 .. 50,0000%00:00 (00:00)
137 Tank Brawl Apr 20, 2016 $4.99N/A (N/A)0 .. 20,0000%00:00 (00:00)
138 John Wick Chronicles Feb 9, 2017 $19.9925% (65%/57%)0 .. 20,0000%00:00 (00:00)
139 Link Apr 22, 2016 $4.99N/A (N/A)0 .. 20,0000%00:00 (00:00)
140 El Matador Sep 25, 2006 $3.9924% (64%/54%)20,000 .. 50,0000%00:00 (00:00)
141 Disney Alice in Wonderland Mar 2, 2010 $19.9924% (64%/63%)0 .. 20,0000%00:00 (00:00)
142 Resilience: Wave Survival Dec 23, 2015 $5.9924% (64%)0 .. 20,0000%00:00 (00:00)
143 Civil War: 1863 Jun 21, 2016 $9.99N/A (N/A)0 .. 20,0000%00:00 (00:00)
144 ROM: Extraction Dec 7, 2016 $19.9923% (63%)0 .. 20,0000%00:00 (00:00)
145 Toxic Bunny HD Jul 18, 2014 $5.99N/A (N/A)0 .. 20,0004.17%02:46 (00:55)
146 Hyperspace Pinball Sep 30, 2015 $2.99N/A (N/A)0 .. 20,0000%00:00 (00:00)
147 Cuban Missile Crisis: Ice Crusade Jul 29, 2005 $4.99N/A (N/A)20,000 .. 50,0000%00:00 (00:00)
148 Spirit of War Mar 12, 2015 $9.99N/A (N/A)20,000 .. 50,0000%00:00 (00:00)
149 Siegecraft Commander Jan 16, 2017 $19.99N/A (N/A/53%)0 .. 20,0000%00:00 (00:00)
150 SunAge: Battle for Elysium Dec 15, 2014 $14.9921% (61%)0 .. 20,0000%00:00 (00:00)
151 Element TD Jan 20, 2017 $0.99N/A (N/A)0 .. 20,0000%00:00 (00:00)
152 Steam Squad Jul 28, 2016 $17.99N/A (N/A)0 .. 20,0000%00:00 (00:00)
153 Big Buck Hunter Arcade Oct 25, 2016 $9.99N/A (N/A)0 .. 20,0000%00:00 (00:00)
154 Defend Your Crypt Jul 21, 2016 $2.99N/A (N/A)0 .. 20,0000%00:00 (00:00)
155 MacGuffin Feb 18, 2016 $2.99N/A (N/A)0 .. 20,0000%00:00 (00:00)
156 Rabbit Island Jul 13, 2016 $1.99N/A (N/A)0 .. 20,0000%00:00 (00:00)
157 Police Tactics: Imperio Sep 7, 2016 $19.9919% (60%)0 .. 20,0005.56%06:17 (02:05)
158 Lolly Joe Aug 5, 2016 $2.99N/A (N/A)0 .. 20,0000%00:00 (00:00)
159 Yar's Revenge Apr 28, 2011 $9.99N/A (N/A/56%)0 .. 20,0000%00:00 (00:00)
160 Mosaico Nov 26, 2013 $19.99N/A (N/A)0 .. 20,0000%00:00 (00:00)
161 Life in Bunker Feb 25, 2016 $15.9917% (58%)0 .. 20,0000%00:00 (00:00)
162 Sir! I'd Like To Report A Bug! Oct 19, 2015 $1.99N/A (N/A)0 .. 20,0008.33%03:46 (01:15)
163 Prophour23 Oct 22, 2014 $9.99N/A (N/A)0 .. 20,0001.69%04:03 (01:21)
164 Crystal Rift Mar 30, 2016 $9.9917% (58%)0 .. 20,0000%00:00 (00:00)
165 Disney Tangled Nov 19, 2010 $19.99N/A (N/A)0 .. 20,0000%00:00 (00:00)
166 Dungeon Manager ZV Oct 16, 2015 $9.9916% (57%)0 .. 20,0000%00:00 (00:00)
167 Rocko's Quest Jul 30, 2003 $4.99N/A (N/A/41%)0 .. 20,0000%00:00 (00:00)
168 Frontline : Road to Moscow Aug 8, 2014 $9.9915% (56%)0 .. 20,0000%00:00 (00:00)
169 reconquest Dec 16, 2016 $4.7914% (55%)0 .. 20,0000%00:00 (00:00)
170 Time of Fury Jul 18, 2014 $19.99N/A (N/A)0 .. 20,0000%00:00 (00:00)
171 VR Journey Dec 15, 2016 $2.99N/A (N/A)20,000 .. 50,0000.87%02:03 (00:41)
172 Crusaders: Thy Kingdom Come Oct 8, 2009 $9.99N/A (N/A)0 .. 20,0000%00:00 (00:00)
173 #KILLALLZOMBIES Aug 10, 2016 $4.99N/A (N/A)20,000 .. 50,0000%00:00 (00:00)
174 Princess Kaguya: Legend of the Moon Warrior Aug 4, 2015 $10.99N/A (N/A)0 .. 20,0001.61%05:02 (01:40)
175 MDK2 HD Jul 30, 2012 $14.9913% (53%/73%)0 .. 20,0000%00:00 (00:00)
176 Desert Law Apr 29, 2005 $2.99N/A (N/A)20,000 .. 50,0000%00:00 (00:00)
177 Police Quest: SWAT Sep 30, 1995 $5.99N/A (N/A)0 .. 20,0000%00:00 (00:00)
178 And So It Was Feb 29, 2016 $9.99N/A (N/A)0 .. 20,0000%00:00 (00:00)
179 World War II GI Mar 15, 1999 $6.99N/A (N/A)0 .. 20,0000%00:00 (00:00)
180 Scapeland Mar 31, 2016 $3.9911% (50%)0 .. 20,0000%00:00 (00:00)
181 Planar Conquest May 30, 2016 $19.9910% (49%/53%)20,000 .. 50,0000%00:00 (00:00)
182 B.A.D Battle Armor Division Aug 18, 2015 $5.99N/A (N/A)0 .. 20,0000%00:00 (00:00)
183 Disposable Heroes Oct 1, 2015 $4.999% (47%)20,000 .. 50,0000%00:00 (00:00)
184 Megamagic: Wizards of the Neon Age Apr 20, 2016 $9.999% (46%/67%)20,000 .. 50,0001.09%02:03 (00:41)
185 World War 2: Time of Wrath Jun 15, 2009 $4.999% (46%)20,000 .. 50,0000%00:00 (00:00)
186 HitBox Jan 30, 2017 Free9% (46%)0 .. 20,0002.33%00:09 (00:03)
187 Super Dungeon Bros Nov 1, 2016 $19.99N/A (N/A)0 .. 20,00012.5%04:19 (01:26)
188 Clockwork Empires Oct 26, 2016 $29.998% (45%/58%)0 .. 20,0000%00:00 (00:00)
189 Plancon: Space Conflict Aug 8, 2016 $6.998% (45%)20,000 .. 50,0000%00:00 (00:00)
190 RYAN BLACK Jan 14, 2017 $2.99N/A (N/A)20,000 .. 50,0000%00:00 (00:00)
191 Infinium Strike Jul 14, 2016 $9.997% (43%)0 .. 20,0000%00:00 (00:00)
192 The Fleets of Sol Apr 1, 2016 $8.99N/A (N/A)0 .. 20,0000%00:00 (00:00)
193 Lost Sea Jul 5, 2016 $14.99N/A (N/A)0 .. 20,00011.11%02:17 (00:45)
194 Mars 2030 Mar 11, 2016 $4.99N/A (N/A)0 .. 20,0000%00:00 (00:00)
195 Red Goddess: Inner World Sep 1, 2015 $9.99N/A (N/A/53%)0 .. 20,0000%00:00 (00:00)
196 Wave of Darkness Nov 5, 2015 $29.99N/A (N/A)0 .. 20,0003.23%02:31 (00:50)
197 Cubesis Aug 22, 2014 $4.99N/A (N/A)0 .. 20,0000%00:00 (00:00)
198 We Are Legion Aug 7, 2015 $9.995% (37%)20,000 .. 50,0003.7%00:01 (00:00)
199 Zombie Apocalypse: Escape The Undead City Nov 25, 2013 $0.995% (37%)0 .. 20,0000%00:00 (00:00)
200 Cavern Escape Feb 20, 2017 $0.995% (37%)100,000 .. 200,0000.21%02:04 (01:22)
201 Sim Junta Aug 18, 2015 $1.994% (35%)0 .. 20,0000%00:00 (00:00)
202 CDF Ghostship Jun 26, 2015 $9.994% (33%)0 .. 20,0000%00:00 (00:00)
203 The Slingshot VR Jul 6, 2016 $1.99N/A (N/A)0 .. 20,0000%00:00 (00:00)
204 Grizzly Valley Apr 23, 2016 $4.994% (33%)0 .. 20,0000%00:00 (00:00)
205 US and THEM Mar 8, 2010 $2.993% (31%)20,000 .. 50,0000%00:00 (00:00)
206 Feudalism Jun 14, 2016 $14.99N/A (N/A)0 .. 20,0000%00:00 (00:00)
207 Zombies on a Plane Mar 25, 2016 $4.99N/A (N/A)0 .. 20,0000%00:00 (00:00)
208 NightZ Feb 14, 2017 $0.993% (27%)20,000 .. 50,0000%00:00 (00:00)
209 Xenophage: Alien Bloodsport Dec 29, 1995 N/AN/A (N/A)20,000 .. 50,0000%00:00 (00:00)
210 Alone in the Dark: Illumination Jun 11, 2015 $19.992% (23%)0 .. 20,0000%00:00 (00:00)
211 APOX Jan 20, 2011 $14.992% (23%/48%)20,000 .. 50,0000%00:00 (00:00)
212 Kabitis Jun 2, 2016 $1.992% (20%)100,000 .. 200,0000.22%03:22 (02:14)
213 Monster Challenge Circus May 15, 2014 $4.99N/A (N/A)0 .. 20,0000%00:00 (00:00)
214 Uprising44: The Silent Shadows Apr 18, 2014 $1.99N/A (N/A)0 .. 20,0000%00:00 (00:00)
215 Barbarian Brawl Feb 12, 2015 $4.99N/A (N/A)0 .. 20,0000%00:00 (00:00)
216 Russian Front Jul 23, 2015 $14.99N/A (N/A)0 .. 20,0000%00:00 (00:00)
217 Iron Soul Feb 26, 2014 $4.991% (5%)0 .. 20,0000%00:00 (00:00)
218 Jurassic Island: The Dinosaur Zoo Jun 11, 2015 $3.991% (3%)0 .. 20,0000%00:00 (00:00)
219 Steamalot: Epoch's Journey Aug 31, 2015 $4.99N/A (N/A)0 .. 20,0000%00:00 (00:00)
220 Final Core Jan 11, 2017 $4.99N/A (N/A)0 .. 20,0004%00:30 (00:10)
221 Magical Brickout Oct 17, 2016 $7.99N/A (N/A)0 .. 20,0000%00:00 (00:00)
222 Driftwatch VR Dec 1, 2016 $2.99N/A (N/A)0 .. 20,0000%00:00 (00:00)
223 Acorn Assault: Rodent Revolution Mar 2, 2016 $9.99N/A (N/A)0 .. 20,0000%00:00 (00:00)
224 Doomed Kingdoms Dec 12, 2016 $0.79N/A (N/A)100,000 .. 200,0000%00:00 (00:00)
225 Disney's Chicken Little: Ace in Action Dec 7, 2006 $19.99N/A (N/A)0 .. 20,0000%00:00 (00:00)
226 LUXIS Oct 26, 2016 $4.99N/A (N/A)0 .. 20,0000%00:00 (00:00)
227 The Sun at Night Aug 1, 2014 $4.99N/A (N/A/59%)0 .. 20,0000%00:00 (00:00)
228 Pills4Skills Jan 25, 2016 $2.99N/A (N/A)0 .. 20,0000%00:00 (00:00)
229 Board Defenders Sep 6, 2016 $4.99N/A (N/A)0 .. 20,0000%00:00 (00:00)
230 MadSpace: To Hell and Beyond Jan 1, 1997 $5.99N/A (N/A)0 .. 20,0000%00:00 (00:00)
231 Leap Up no jutsu Dec 22, 2016 $0.99N/A (N/A)20,000 .. 50,0000%00:00 (00:00)
232 Civil War: 1862 Oct 6, 2016 $9.99N/A (N/A)0 .. 20,0000%00:00 (00:00)
233 ZombieZoid Zenith Sep 30, 2015 $5.99N/A (N/A)0 .. 20,00016.67%02:01 (00:40)
234 The Body Changer Oct 15, 2015 $19.99N/A (N/A)0 .. 20,0000%00:00 (00:00)
235 Navpoint Sep 23, 2015 $4.99N/A (N/A)0 .. 20,0004.88%04:31 (03:00)
236 Leviathan Starblade Nov 1, 2016 $2.99N/A (N/A)0 .. 20,0000%00:00 (00:00)
237 Die for the Empire Oct 7, 2016 $4.99N/A (N/A)0 .. 20,0000%00:00 (00:00)
238 Paganitzu Oct 1, 1991 $4.99N/A (N/A)20,000 .. 50,0000%00:00 (00:00)
239 .EXE Jun 16, 2016 $5.99N/A (N/A)0 .. 20,0000%00:00 (00:00)
240 WinKings Oct 28, 2016 $4.99N/A (N/A)0 .. 20,0000%00:00 (00:00)
241 Road Works Feb 15, 2014 $7.99N/A (N/A)0 .. 20,0000%00:00 (00:00)
242 Rush for gold: Alaska Jan 14, 2016 $3.99N/A (N/A)50,000 .. 100,0000.31%02:44 (00:54)
243 Porradaria Upgrade Oct 2, 2013 $4.99N/A (N/A)20,000 .. 50,0000.46%05:02 (01:40)
244 Monuments of Mars Jan 1, 1990 N/AN/A (N/A)50,000 .. 100,0000%00:00 (00:00)
245 ARK BOX Unlimited Nov 29, 2016 $4.99N/A (N/A)0 .. 20,0000%00:00 (00:00)
246 DEFCON VR Feb 15, 2017 FreeN/A (N/A/84%)0 .. 20,0000%00:00 (00:00)
247 Lew Pulsipher's Doomstar Sep 16, 2016 $9.99N/A (N/A)0 .. 20,0000%00:00 (00:00)
248 Cavernus Jul 5, 2016 $1.99N/A (N/A)0 .. 20,0000%00:00 (00:00)
249 ABO MANDO Dec 31, 2015 $1.99N/A (N/A)20,000 .. 50,0000%00:00 (00:00)
250 Twixel Nov 18, 2016 $3.99N/A (N/A)0 .. 20,0000%00:00 (00:00)
251 Red Game Without A Great Name Dec 9, 2015 $2.99N/A (N/A/55%)20,000 .. 50,0001.75%01:50 (01:13)
252 Fray: Reloaded Edition Jun 19, 2012 N/AN/A (N/A/27%)0 .. 20,0000%00:00 (00:00)

Tags over time:

Access restricted.

This feature is only available to users with special access rights. Sorry.

If you want to proceed, you need to register or log in first and then back Steam Spy on Patreon. Look for Indie or Pro pledge.

Don't forget to use the same email as on Steam Spy!

Owners of this game also own:

Access restricted.

This feature is only available to users with special access rights. Sorry.

If you want to proceed, you need to register or log in first and then back Steam Spy on Patreon. Look for Indie or Pro pledge.

Don't forget to use the same email as on Steam Spy!

Playtime distribution:

Access restricted.

This feature is only available to users with special access rights. Sorry.

If you want to proceed, you need to register or log in first and then back Steam Spy on Patreon. Look for Indie or Pro pledge.

Don't forget to use the same email as on Steam Spy!

Playtime (2 weeks):

Access restricted.

This feature is only available to users with special access rights. Sorry.

If you want to proceed, you need to register or log in first and then back Steam Spy on Patreon. Look for Indie or Pro pledge.

Don't forget to use the same email as on Steam Spy!

User reviews:

Login required.

Please register or log in to see this information.